Terminal Aerodrome Forecast
Issued by NWS Cleveland, OH

Home | Current Version | Previous Version | Text Only | Print | Product List | Glossary Off
Versions: 1 2 3 4 5 6 7 8 9 10 11 12 13 14 15

000
FTUS41 KCLE 260530
TAFYNG
TAF
KYNG 260530Z 2606/2706 25004KT P6SM SCT050 BKN250
     FM260700 30003KT 6SM BR SKC
      TEMPO 2609/2613 3SM BR
     FM261600 35007KT P6SM SCT045
     FM270100 VRB03KT P6SM SKC=

USA.gov is the U.S. government's official web portal to all federal, state and local government web resources and services.